sensor_id;sensor_type;location;lat;lon;timestamp;temperature;humidity
4097;DHT22;2062;50.694;7.246;2022-09-09T00:00:19;26.20;37.10
4097;DHT22;2062;50.694;7.246;2022-09-09T00:02:55;26.30;37.10
4097;DHT22;2062;50.694;7.246;2022-09-09T00:05:31;26.20;37.10
4097;DHT22;2062;50.694;7.246;2022-09-09T00:08:01;26.20;37.10
4097;DHT22;2062;50.694;7.246;2022-09-09T00:10:31;26.30;37.10
4097;DHT22;2062;50.694;7.246;2022-09-09T00:13:04;26.20;37.10
4097;DHT22;2062;50.694;7.246;2022-09-09T00:15:38;26.20;37.10
4097;DHT22;2062;50.694;7.246;2022-09-09T00:18:17;26.20;37.00
4097;DHT22;2062;50.694;7.246;2022-09-09T00:20:53;26.20;37.00
4097;DHT22;2062;50.694;7.246;2022-09-09T00:23:25;26.20;37.00
4097;DHT22;2062;50.694;7.246;2022-09-09T00:26:01;26.20;37.00
4097;DHT22;2062;50.694;7.246;2022-09-09T00:28:30;26.20;37.00
4097;DHT22;2062;50.694;7.246;2022-09-09T00:31:04;26.20;37.00
4097;DHT22;2062;50.694;7.246;2022-09-09T00:33:36;26.20;37.00
4097;DHT22;2062;50.694;7.246;2022-09-09T00:36:12;26.20;37.00
4097;DHT22;2062;50.694;7.246;2022-09-09T00:38:42;26.20;36.90
4097;DHT22;2062;50.694;7.246;2022-09-09T00:41:15;26.20;36.90
4097;DHT22;2062;50.694;7.246;2022-09-09T00:43:49;26.20;36.90
4097;DHT22;2062;50.694;7.246;2022-09-09T00:46:33;26.20;37.00
4097;DHT22;2062;50.694;7.246;2022-09-09T00:49:15;26.20;37.00
4097;DHT22;2062;50.694;7.246;2022-09-09T00:51:49;26.20;37.00
4097;DHT22;2062;50.694;7.246;2022-09-09T00:54:36;26.20;37.00
4097;DHT22;2062;50.694;7.246;2022-09-09T00:57:13;26.20;37.10
4097;DHT22;2062;50.694;7.246;2022-09-09T00:59:47;26.20;37.00
4097;DHT22;2062;50.694;7.246;2022-09-09T01:02:23;26.20;37.00
4097;DHT22;2062;50.694;7.246;2022-09-09T01:04:53;26.20;37.00
4097;DHT22;2062;50.694;7.246;2022-09-09T01:07:21;26.20;37.00
4097;DHT22;2062;50.694;7.246;2022-09-09T01:09:56;26.20;37.00
4097;DHT22;2062;50.694;7.246;2022-09-09T01:12:30;26.20;37.00
4097;DHT22;2062;50.694;7.246;2022-09-09T01:15:08;26.20;36.90
4097;DHT22;2062;50.694;7.246;2022-09-09T01:17:44;26.20;37.00
4097;DHT22;2062;50.694;7.246;2022-09-09T01:20:17;26.20;36.90
4097;DHT22;2062;50.694;7.246;2022-09-09T01:22:56;26.20;37.00
4097;DHT22;2062;50.694;7.246;2022-09-09T01:25:30;26.20;36.90
4097;DHT22;2062;50.694;7.246;2022-09-09T01:28:02;26.20;36.90
4097;DHT22;2062;50.694;7.246;2022-09-09T01:30:30;26.20;36.90
4097;DHT22;2062;50.694;7.246;2022-09-09T01:32:58;26.20;36.90
4097;DHT22;2062;50.694;7.246;2022-09-09T01:35:39;26.20;36.90
4097;DHT22;2062;50.694;7.246;2022-09-09T01:38:06;26.20;36.90
4097;DHT22;2062;50.694;7.246;2022-09-09T01:40:33;26.10;36.90
4097;DHT22;2062;50.694;7.246;2022-09-09T01:43:01;26.20;36.90
4097;DHT22;2062;50.694;7.246;2022-09-09T01:45:29;26.20;36.90
4097;DHT22;2062;50.694;7.246;2022-09-09T01:47:56;26.10;36.90
4097;DHT22;2062;50.694;7.246;2022-09-09T01:50:23;26.10;36.90
4097;DHT22;2062;50.694;7.246;2022-09-09T01:52:52;26.20;36.80
4097;DHT22;2062;50.694;7.246;2022-09-09T01:55:23;26.20;36.90
4097;DHT22;2062;50.694;7.246;2022-09-09T01:58:03;26.20;36.80
4097;DHT22;2062;50.694;7.246;2022-09-09T02:00:32;26.20;36.80
4097;DHT22;2062;50.694;7.246;2022-09-09T02:03:03;26.10;36.70
4097;DHT22;2062;50.694;7.246;2022-09-09T02:05:37;26.10;37.40
4097;DHT22;2062;50.694;7.246;2022-09-09T02:08:06;26.10;36.80
4097;DHT22;2062;50.694;7.246;2022-09-09T02:10:40;26.20;36.70
4097;DHT22;2062;50.694;7.246;2022-09-09T02:13:12;26.10;36.80
4097;DHT22;2062;50.694;7.246;2022-09-09T02:15:43;26.10;36.70
4097;DHT22;2062;50.694;7.246;2022-09-09T02:18:13;26.10;36.70
4097;DHT22;2062;50.694;7.246;2022-09-09T02:20:43;26.10;36.70
4097;DHT22;2062;50.694;7.246;2022-09-09T02:23:11;26.10;36.70
4097;DHT22;2062;50.694;7.246;2022-09-09T02:25:40;26.10;36.70
4097;DHT22;2062;50.694;7.246;2022-09-09T02:28:10;26.20;36.70
4097;DHT22;2062;50.694;7.246;2022-09-09T02:30:40;26.10;36.70
4097;DHT22;2062;50.694;7.246;2022-09-09T02:33:08;26.10;36.70
4097;DHT22;2062;50.694;7.246;2022-09-09T02:35:36;26.10;36.70
4097;DHT22;2062;50.694;7.246;2022-09-09T02:38:06;26.10;36.70
4097;DHT22;2062;50.694;7.246;2022-09-09T02:40:34;26.10;36.70
4097;DHT22;2062;50.694;7.246;2022-09-09T02:43:01;26.10;36.70
4097;DHT22;2062;50.694;7.246;2022-09-09T02:45:36;26.20;36.70
4097;DHT22;2062;50.694;7.246;2022-09-09T02:48:11;26.10;36.70
4097;DHT22;2062;50.694;7.246;2022-09-09T02:50:48;26.10;36.60
4097;DHT22;2062;50.694;7.246;2022-09-09T02:53:22;26.10;36.70
4097;DHT22;2062;50.694;7.246;2022-09-09T02:55:53;26.10;36.70
4097;DHT22;2062;50.694;7.246;2022-09-09T02:58:22;26.10;36.70
4097;DHT22;2062;50.694;7.246;2022-09-09T03:00:51;26.10;36.70
4097;DHT22;2062;50.694;7.246;2022-09-09T03:03:19;26.10;36.70
4097;DHT22;2062;50.694;7.246;2022-09-09T03:05:47;26.10;36.70
4097;DHT22;2062;50.694;7.246;2022-09-09T03:08:15;26.10;36.70
4097;DHT22;2062;50.694;7.246;2022-09-09T03:10:42;26.10;36.60
4097;DHT22;2062;50.694;7.246;2022-09-09T03:13:09;26.10;36.60
4097;DHT22;2062;50.694;7.246;2022-09-09T03:15:38;26.10;36.60
4097;DHT22;2062;50.694;7.246;2022-09-09T03:18:06;26.10;36.60
4097;DHT22;2062;50.694;7.246;2022-09-09T03:20:33;26.10;36.60
4097;DHT22;2062;50.694;7.246;2022-09-09T03:23:00;26.10;36.60
4097;DHT22;2062;50.694;7.246;2022-09-09T03:25:28;26.10;36.60
4097;DHT22;2062;50.694;7.246;2022-09-09T03:27:55;26.10;36.60
4097;DHT22;2062;50.694;7.246;2022-09-09T03:30:22;26.10;36.60
4097;DHT22;2062;50.694;7.246;2022-09-09T03:32:49;26.00;36.60
4097;DHT22;2062;50.694;7.246;2022-09-09T03:35:17;26.00;36.60
4097;DHT22;2062;50.694;7.246;2022-09-09T03:37:44;26.10;36.70
4097;DHT22;2062;50.694;7.246;2022-09-09T03:40:12;26.10;36.60
4097;DHT22;2062;50.694;7.246;2022-09-09T03:42:39;26.00;36.60
4097;DHT22;2062;50.694;7.246;2022-09-09T03:45:08;26.10;36.60
4097;DHT22;2062;50.694;7.246;2022-09-09T03:47:36;26.10;36.60
4097;DHT22;2062;50.694;7.246;2022-09-09T03:50:04;26.10;36.60
4097;DHT22;2062;50.694;7.246;2022-09-09T03:52:36;26.00;36.60
4097;DHT22;2062;50.694;7.246;2022-09-09T03:55:03;26.00;36.60
4097;DHT22;2062;50.694;7.246;2022-09-09T03:57:30;26.00;36.60
4097;DHT22;2062;50.694;7.246;2022-09-09T04:00:00;26.10;36.60
4097;DHT22;2062;50.694;7.246;2022-09-09T04:02:27;26.10;36.60
4097;DHT22;2062;50.694;7.246;2022-09-09T04:04:54;26.10;36.60
4097;DHT22;2062;50.694;7.246;2022-09-09T04:07:21;26.00;36.50
4097;DHT22;2062;50.694;7.246;2022-09-09T04:09:49;26.00;36.50
4097;DHT22;2062;50.694;7.246;2022-09-09T04:12:16;26.00;37.20
4097;DHT22;2062;50.694;7.246;2022-09-09T04:14:43;26.00;36.50
4097;DHT22;2062;50.694;7.246;2022-09-09T04:17:10;26.00;36.50
4097;DHT22;2062;50.694;7.246;2022-09-09T04:19:37;26.10;36.50
4097;DHT22;2062;50.694;7.246;2022-09-09T04:22:04;26.00;36.60
4097;DHT22;2062;50.694;7.246;2022-09-09T04:24:30;26.00;36.70
4097;DHT22;2062;50.694;7.246;2022-09-09T04:26:58;26.00;37.10
4097;DHT22;2062;50.694;7.246;2022-09-09T04:29:25;26.00;37.30
4097;DHT22;2062;50.694;7.246;2022-09-09T04:31:52;26.00;37.60
4097;DHT22;2062;50.694;7.246;2022-09-09T04:34:19;26.00;37.70
4097;DHT22;2062;50.694;7.246;2022-09-09T04:36:46;26.10;37.50
4097;DHT22;2062;50.694;7.246;2022-09-09T04:39:13;26.00;37.40
4097;DHT22;2062;50.694;7.246;2022-09-09T04:41:40;26.10;37.30
4097;DHT22;2062;50.694;7.246;2022-09-09T04:44:08;26.10;37.30
4097;DHT22;2062;50.694;7.246;2022-09-09T04:46:35;26.00;37.30
4097;DHT22;2062;50.694;7.246;2022-09-09T04:49:02;26.00;37.30
4097;DHT22;2062;50.694;7.246;2022-09-09T04:51:29;26.00;37.30
4097;DHT22;2062;50.694;7.246;2022-09-09T04:53:56;26.00;37.20
4097;DHT22;2062;50.694;7.246;2022-09-09T04:56:23;26.00;37.20
4097;DHT22;2062;50.694;7.246;2022-09-09T04:58:52;26.00;37.20
4097;DHT22;2062;50.694;7.246;2022-09-09T05:01:21;26.00;37.10
4097;DHT22;2062;50.694;7.246;2022-09-09T05:03:49;26.00;37.10
4097;DHT22;2062;50.694;7.246;2022-09-09T05:06:19;26.00;37.10
4097;DHT22;2062;50.694;7.246;2022-09-09T05:08:46;26.00;37.10
4097;DHT22;2062;50.694;7.246;2022-09-09T05:11:14;26.00;37.30
4097;DHT22;2062;50.694;7.246;2022-09-09T05:13:42;26.00;37.50
4097;DHT22;2062;50.694;7.246;2022-09-09T05:16:09;26.00;37.50
4097;DHT22;2062;50.694;7.246;2022-09-09T05:18:38;26.00;37.50
4097;DHT22;2062;50.694;7.246;2022-09-09T05:21:05;26.00;37.50
4097;DHT22;2062;50.694;7.246;2022-09-09T05:23:32;26.00;37.50
4097;DHT22;2062;50.694;7.246;2022-09-09T05:26:00;26.00;37.40
4097;DHT22;2062;50.694;7.246;2022-09-09T05:28:27;26.00;37.20
4097;DHT22;2062;50.694;7.246;2022-09-09T05:30:58;26.00;37.00
4097;DHT22;2062;50.694;7.246;2022-09-09T05:33:26;26.00;37.10
4097;DHT22;2062;50.694;7.246;2022-09-09T05:36:02;25.90;36.90
4097;DHT22;2062;50.694;7.246;2022-09-09T05:38:31;26.00;37.50
4097;DHT22;2062;50.694;7.246;2022-09-09T05:40:59;25.90;37.10
4097;DHT22;2062;50.694;7.246;2022-09-09T05:43:26;25.90;37.10
4097;DHT22;2062;50.694;7.246;2022-09-09T05:46:01;26.00;37.60
4097;DHT22;2062;50.694;7.246;2022-09-09T05:48:30;26.00;37.70
4097;DHT22;2062;50.694;7.246;2022-09-09T05:50:57;25.90;37.20
4097;DHT22;2062;50.694;7.246;2022-09-09T05:53:27;25.90;37.10
4097;DHT22;2062;50.694;7.246;2022-09-09T05:56:01;25.90;37.00
4097;DHT22;2062;50.694;7.246;2022-09-09T05:58:29;25.90;36.70
4097;DHT22;2062;50.694;7.246;2022-09-09T06:01:01;25.90;36.60
4097;DHT22;2062;50.694;7.246;2022-09-09T06:03:28;25.90;36.50
4097;DHT22;2062;50.694;7.246;2022-09-09T06:05:58;25.90;36.50
4097;DHT22;2062;50.694;7.246;2022-09-09T06:08:27;25.90;36.40
4097;DHT22;2062;50.694;7.246;2022-09-09T06:11:01;25.90;36.10
4097;DHT22;2062;50.694;7.246;2022-09-09T06:13:29;25.90;35.80
4097;DHT22;2062;50.694;7.246;2022-09-09T06:15:56;25.80;35.70
4097;DHT22;2062;50.694;7.246;2022-09-09T06:18:24;25.80;35.40
4097;DHT22;2062;50.694;7.246;2022-09-09T06:20:58;25.70;35.60
4097;DHT22;2062;50.694;7.246;2022-09-09T06:23:27;25.70;35.60
4097;DHT22;2062;50.694;7.246;2022-09-09T06:26:02;25.70;35.70
4097;DHT22;2062;50.694;7.246;2022-09-09T06:28:29;25.70;35.70
4097;DHT22;2062;50.694;7.246;2022-09-09T06:30:58;25.70;35.80
4097;DHT22;2062;50.694;7.246;2022-09-09T06:33:25;25.80;35.90
4097;DHT22;2062;50.694;7.246;2022-09-09T06:35:53;25.70;35.90
4097;DHT22;2062;50.694;7.246;2022-09-09T06:38:22;25.80;35.90
4097;DHT22;2062;50.694;7.246;2022-09-09T06:40:52;25.80;35.90
4097;DHT22;2062;50.694;7.246;2022-09-09T06:43:21;25.80;35.90
4097;DHT22;2062;50.694;7.246;2022-09-09T06:45:53;25.90;35.90
4097;DHT22;2062;50.694;7.246;2022-09-09T06:48:21;25.90;35.80
4097;DHT22;2062;50.694;7.246;2022-09-09T06:50:47;25.90;35.80
4097;DHT22;2062;50.694;7.246;2022-09-09T06:53:16;25.90;35.80
4097;DHT22;2062;50.694;7.246;2022-09-09T06:55:44;25.90;35.80
4097;DHT22;2062;50.694;7.246;2022-09-09T06:58:13;26.00;36.20
4097;DHT22;2062;50.694;7.246;2022-09-09T07:00:39;26.00;36.20
4097;DHT22;2062;50.694;7.246;2022-09-09T07:03:06;25.90;35.80
4097;DHT22;2062;50.694;7.246;2022-09-09T07:05:33;25.90;35.70
4097;DHT22;2062;50.694;7.246;2022-09-09T07:08:00;26.00;36.10
4097;DHT22;2062;50.694;7.246;2022-09-09T07:10:27;25.90;35.80
4097;DHT22;2062;50.694;7.246;2022-09-09T07:12:54;26.00;36.10
4097;DHT22;2062;50.694;7.246;2022-09-09T07:15:22;26.00;36.10
4097;DHT22;2062;50.694;7.246;2022-09-09T07:17:50;26.00;36.10
4097;DHT22;2062;50.694;7.246;2022-09-09T07:20:18;26.00;36.10
4097;DHT22;2062;50.694;7.246;2022-09-09T07:22:45;26.00;36.20
4097;DHT22;2062;50.694;7.246;2022-09-09T07:25:12;25.90;35.80
4097;DHT22;2062;50.694;7.246;2022-09-09T07:27:39;26.00;36.20
4097;DHT22;2062;50.694;7.246;2022-09-09T07:30:07;25.90;35.70
4097;DHT22;2062;50.694;7.246;2022-09-09T07:32:35;25.90;35.80
4097;DHT22;2062;50.694;7.246;2022-09-09T07:35:03;25.90;35.80
4097;DHT22;2062;50.694;7.246;2022-09-09T07:37:29;26.00;36.20
4097;DHT22;2062;50.694;7.246;2022-09-09T07:39:56;25.90;35.80
4097;DHT22;2062;50.694;7.246;2022-09-09T07:42:24;26.00;36.20
4097;DHT22;2062;50.694;7.246;2022-09-09T07:44:50;26.00;36.20
4097;DHT22;2062;50.694;7.246;2022-09-09T07:47:20;25.90;35.80
4097;DHT22;2062;50.694;7.246;2022-09-09T07:49:48;25.90;35.80
4097;DHT22;2062;50.694;7.246;2022-09-09T07:52:15;26.00;36.20
4097;DHT22;2062;50.694;7.246;2022-09-09T07:54:42;26.00;36.20
4097;DHT22;2062;50.694;7.246;2022-09-09T07:57:11;25.90;35.80
4097;DHT22;2062;50.694;7.246;2022-09-09T07:59:38;26.00;36.20
4097;DHT22;2062;50.694;7.246;2022-09-09T08:02:05;25.90;35.80
4097;DHT22;2062;50.694;7.246;2022-09-09T08:04:32;25.90;35.80
4097;DHT22;2062;50.694;7.246;2022-09-09T08:07:01;25.90;35.80
4097;DHT22;2062;50.694;7.246;2022-09-09T08:09:29;25.90;35.80
4097;DHT22;2062;50.694;7.246;2022-09-09T08:11:58;26.00;36.20
4097;DHT22;2062;50.694;7.246;2022-09-09T08:14:25;25.90;35.80
4097;DHT22;2062;50.694;7.246;2022-09-09T08:16:52;25.90;35.80
4097;DHT22;2062;50.694;7.246;2022-09-09T08:19:19;25.90;35.80
4097;DHT22;2062;50.694;7.246;2022-09-09T08:21:46;25.90;35.80
4097;DHT22;2062;50.694;7.246;2022-09-09T08:24:15;26.00;36.10
4097;DHT22;2062;50.694;7.246;2022-09-09T08:26:43;26.00;36.10
4097;DHT22;2062;50.694;7.246;2022-09-09T08:29:12;25.90;35.80
4097;DHT22;2062;50.694;7.246;2022-09-09T08:31:41;26.00;36.10
4097;DHT22;2062;50.694;7.246;2022-09-09T08:34:08;26.00;36.10
4097;DHT22;2062;50.694;7.246;2022-09-09T08:36:38;26.00;36.10
4097;DHT22;2062;50.694;7.246;2022-09-09T08:39:06;26.00;36.10
4097;DHT22;2062;50.694;7.246;2022-09-09T08:44:39;26.00;36.10
4097;DHT22;2062;50.694;7.246;2022-09-09T08:47:15;26.00;36.10
4097;DHT22;2062;50.694;7.246;2022-09-09T08:50:03;26.00;36.10
4097;DHT22;2062;50.694;7.246;2022-09-09T08:52:38;26.00;36.10
4097;DHT22;2062;50.694;7.246;2022-09-09T08:55:21;26.00;36.00
4097;DHT22;2062;50.694;7.246;2022-09-09T08:57:53;26.00;36.10
4097;DHT22;2062;50.694;7.246;2022-09-09T09:00:20;26.00;36.10
4097;DHT22;2062;50.694;7.246;2022-09-09T09:02:55;26.10;36.00
4097;DHT22;2062;50.694;7.246;2022-09-09T09:05:30;26.10;36.10
4097;DHT22;2062;50.694;7.246;2022-09-09T09:08:05;26.00;36.00
4097;DHT22;2062;50.694;7.246;2022-09-09T09:10:45;26.10;36.00
4097;DHT22;2062;50.694;7.246;2022-09-09T09:13:17;26.00;36.00
4097;DHT22;2062;50.694;7.246;2022-09-09T09:15:49;26.10;36.00
4097;DHT22;2062;50.694;7.246;2022-09-09T09:18:17;26.10;36.00
4097;DHT22;2062;50.694;7.246;2022-09-09T09:20:50;26.10;36.00
4097;DHT22;2062;50.694;7.246;2022-09-09T09:23:22;26.10;36.00
4097;DHT22;2062;50.694;7.246;2022-09-09T09:25:50;26.10;36.00
4097;DHT22;2062;50.694;7.246;2022-09-09T09:28:23;26.10;36.00
4097;DHT22;2062;50.694;7.246;2022-09-09T09:30:55;26.10;36.00
4097;DHT22;2062;50.694;7.246;2022-09-09T09:33:27;26.10;36.00
4097;DHT22;2062;50.694;7.246;2022-09-09T09:35:55;26.00;36.00
4097;DHT22;2062;50.694;7.246;2022-09-09T09:38:26;26.00;36.00
4097;DHT22;2062;50.694;7.246;2022-09-09T09:40:54;26.10;36.00
4097;DHT22;2062;50.694;7.246;2022-09-09T09:43:27;26.00;36.00
4097;DHT22;2062;50.694;7.246;2022-09-09T09:45:54;26.10;36.00
4097;DHT22;2062;50.694;7.246;2022-09-09T09:48:23;26.00;36.00
4097;DHT22;2062;50.694;7.246;2022-09-09T09:50:52;26.00;36.00
4097;DHT22;2062;50.694;7.246;2022-09-09T09:53:22;26.00;36.00
4097;DHT22;2062;50.694;7.246;2022-09-09T09:55:54;26.00;36.00
4097;DHT22;2062;50.694;7.246;2022-09-09T09:58:21;26.10;36.00
4097;DHT22;2062;50.694;7.246;2022-09-09T10:00:51;26.00;36.00
4097;DHT22;2062;50.694;7.246;2022-09-09T10:03:24;26.00;36.00
4097;DHT22;2062;50.694;7.246;2022-09-09T10:05:52;26.00;36.00
4097;DHT22;2062;50.694;7.246;2022-09-09T10:08:20;26.00;36.00
4097;DHT22;2062;50.694;7.246;2022-09-09T10:11:00;26.00;36.00
4097;DHT22;2062;50.694;7.246;2022-09-09T10:13:36;26.00;35.90
4097;DHT22;2062;50.694;7.246;2022-09-09T10:16:21;26.10;36.00
4097;DHT22;2062;50.694;7.246;2022-09-09T10:19:09;26.00;35.90
4097;DHT22;2062;50.694;7.246;2022-09-09T10:21:55;26.00;36.00
4097;DHT22;2062;50.694;7.246;2022-09-09T10:24:50;26.00;36.00
4097;DHT22;2062;50.694;7.246;2022-09-09T10:27:24;26.00;36.00
4097;DHT22;2062;50.694;7.246;2022-09-09T10:30:03;26.00;36.00
4097;DHT22;2062;50.694;7.246;2022-09-09T10:32:41;26.00;36.60
4097;DHT22;2062;50.694;7.246;2022-09-09T10:35:29;26.10;36.00
4097;DHT22;2062;50.694;7.246;2022-09-09T10:38:16;26.00;35.90
4097;DHT22;2062;50.694;7.246;2022-09-09T10:44:04;26.00;35.90
4097;DHT22;2062;50.694;7.246;2022-09-09T10:46:53;26.00;35.90
4097;DHT22;2062;50.694;7.246;2022-09-09T10:49:36;26.10;35.90
4097;DHT22;2062;50.694;7.246;2022-09-09T10:52:14;26.00;35.90
4097;DHT22;2062;50.694;7.246;2022-09-09T10:54:54;26.10;35.90
4097;DHT22;2062;50.694;7.246;2022-09-09T10:57:28;26.00;35.90
4097;DHT22;2062;50.694;7.246;2022-09-09T11:00:00;26.10;35.90
4097;DHT22;2062;50.694;7.246;2022-09-09T11:02:30;26.10;35.80
4097;DHT22;2062;50.694;7.246;2022-09-09T11:05:02;26.10;35.90
4097;DHT22;2062;50.694;7.246;2022-09-09T11:07:34;26.00;35.90
4097;DHT22;2062;50.694;7.246;2022-09-09T11:10:04;26.10;35.80
4097;DHT22;2062;50.694;7.246;2022-09-09T11:12:34;26.10;35.80
4097;DHT22;2062;50.694;7.246;2022-09-09T11:15:08;26.10;35.90
4097;DHT22;2062;50.694;7.246;2022-09-09T11:17:45;26.10;35.90
4097;DHT22;2062;50.694;7.246;2022-09-09T11:20:16;26.10;35.80
4097;DHT22;2062;50.694;7.246;2022-09-09T11:22:47;26.00;35.80
4097;DHT22;2062;50.694;7.246;2022-09-09T11:25:16;26.10;35.80
4097;DHT22;2062;50.694;7.246;2022-09-09T11:27:55;26.10;35.80
4097;DHT22;2062;50.694;7.246;2022-09-09T11:30:27;26.10;35.80
4097;DHT22;2062;50.694;7.246;2022-09-09T11:33:22;26.10;35.80
4097;DHT22;2062;50.694;7.246;2022-09-09T11:38:58;26.10;35.80
4097;DHT22;2062;50.694;7.246;2022-09-09T11:41:33;26.10;35.80
4097;DHT22;2062;50.694;7.246;2022-09-09T11:44:10;26.10;35.80
4097;DHT22;2062;50.694;7.246;2022-09-09T11:46:38;26.10;35.80
4097;DHT22;2062;50.694;7.246;2022-09-09T11:49:26;26.10;35.80
4097;DHT22;2062;50.694;7.246;2022-09-09T11:51:53;26.00;35.80
4097;DHT22;2062;50.694;7.246;2022-09-09T11:54:32;26.10;35.80
4097;DHT22;2062;50.694;7.246;2022-09-09T11:57:02;26.10;35.80
4097;DHT22;2062;50.694;7.246;2022-09-09T11:59:31;26.10;35.80
4097;DHT22;2062;50.694;7.246;2022-09-09T12:01:59;26.10;35.70
4097;DHT22;2062;50.694;7.246;2022-09-09T12:04:36;26.10;35.80
4097;DHT22;2062;50.694;7.246;2022-09-09T12:07:25;26.10;35.70
4097;DHT22;2062;50.694;7.246;2022-09-09T12:09:59;26.10;35.70
4097;DHT22;2062;50.694;7.246;2022-09-09T12:12:30;26.10;35.70
4097;DHT22;2062;50.694;7.246;2022-09-09T12:15:18;26.10;35.70
4097;DHT22;2062;50.694;7.246;2022-09-09T12:17:48;26.10;35.70
4097;DHT22;2062;50.694;7.246;2022-09-09T12:20:18;26.10;35.70
4097;DHT22;2062;50.694;7.246;2022-09-09T12:26:06;26.10;35.60
4097;DHT22;2062;50.694;7.246;2022-09-09T12:28:52;26.10;35.60
4097;DHT22;2062;50.694;7.246;2022-09-09T12:31:25;26.10;35.60
4097;DHT22;2062;50.694;7.246;2022-09-09T12:34:09;26.10;34.90
4097;DHT22;2062;50.694;7.246;2022-09-09T12:36:37;26.10;34.80
4097;DHT22;2062;50.694;7.246;2022-09-09T12:39:14;26.00;34.80
4097;DHT22;2062;50.694;7.246;2022-09-09T12:41:51;26.10;34.70
4097;DHT22;2062;50.694;7.246;2022-09-09T12:44:22;26.00;34.60
4097;DHT22;2062;50.694;7.246;2022-09-09T12:46:50;26.00;34.30
4097;DHT22;2062;50.694;7.246;2022-09-09T12:49:28;26.00;34.50
4097;DHT22;2062;50.694;7.246;2022-09-09T12:51:56;26.00;34.40
4097;DHT22;2062;50.694;7.246;2022-09-09T12:54:24;26.00;34.30
4097;DHT22;2062;50.694;7.246;2022-09-09T12:56:52;26.00;34.30
4097;DHT22;2062;50.694;7.246;2022-09-09T12:59:23;26.10;34.10
4097;DHT22;2062;50.694;7.246;2022-09-09T13:01:56;26.00;34.00
4097;DHT22;2062;50.694;7.246;2022-09-09T13:04:23;25.90;33.50
4097;DHT22;2062;50.694;7.246;2022-09-09T13:06:50;26.00;33.90
4097;DHT22;2062;50.694;7.246;2022-09-09T13:09:19;25.90;33.40
4097;DHT22;2062;50.694;7.246;2022-09-09T13:11:48;25.90;33.20
4097;DHT22;2062;50.694;7.246;2022-09-09T13:14:20;25.90;33.30
4097;DHT22;2062;50.694;7.246;2022-09-09T13:16:56;25.90;32.90
4097;DHT22;2062;50.694;7.246;2022-09-09T13:19:23;25.90;32.90
4097;DHT22;2062;50.694;7.246;2022-09-09T13:21:53;25.90;33.00
4097;DHT22;2062;50.694;7.246;2022-09-09T13:24:29;25.90;33.10
4097;DHT22;2062;50.694;7.246;2022-09-09T13:26:58;25.90;32.70
4097;DHT22;2062;50.694;7.246;2022-09-09T13:29:29;25.90;32.60
4097;DHT22;2062;50.694;7.246;2022-09-09T13:32:04;25.80;32.30
4097;DHT22;2062;50.694;7.246;2022-09-09T13:34:34;25.80;32.10
4097;DHT22;2062;50.694;7.246;2022-09-09T13:37:03;25.80;32.10
4097;DHT22;2062;50.694;7.246;2022-09-09T13:39:34;25.80;32.20
4097;DHT22;2062;50.694;7.246;2022-09-09T13:42:03;25.70;32.20
4097;DHT22;2062;50.694;7.246;2022-09-09T13:44:34;25.70;32.40
4097;DHT22;2062;50.694;7.246;2022-09-09T13:47:04;25.70;32.50
4097;DHT22;2062;50.694;7.246;2022-09-09T13:49:31;25.70;32.50
4097;DHT22;2062;50.694;7.246;2022-09-09T13:52:10;25.70;32.60
4097;DHT22;2062;50.694;7.246;2022-09-09T13:54:42;25.70;32.70
4097;DHT22;2062;50.694;7.246;2022-09-09T13:57:15;25.70;32.80
4097;DHT22;2062;50.694;7.246;2022-09-09T13:59:45;25.70;32.80
4097;DHT22;2062;50.694;7.246;2022-09-09T14:02:12;25.70;32.80
4097;DHT22;2062;50.694;7.246;2022-09-09T14:04:39;25.70;32.90
4097;DHT22;2062;50.694;7.246;2022-09-09T14:07:10;25.70;33.00
4097;DHT22;2062;50.694;7.246;2022-09-09T14:09:38;25.60;32.90
4097;DHT22;2062;50.694;7.246;2022-09-09T14:12:06;25.70;33.00
4097;DHT22;2062;50.694;7.246;2022-09-09T14:14:35;25.70;33.00
4097;DHT22;2062;50.694;7.246;2022-09-09T14:17:03;25.70;33.10
4097;DHT22;2062;50.694;7.246;2022-09-09T14:19:30;25.70;33.90
4097;DHT22;2062;50.694;7.246;2022-09-09T14:21:57;25.70;33.20
4097;DHT22;2062;50.694;7.246;2022-09-09T14:24:24;25.70;33.20
4097;DHT22;2062;50.694;7.246;2022-09-09T14:26:51;25.70;33.10
4097;DHT22;2062;50.694;7.246;2022-09-09T14:29:18;25.70;33.10
4097;DHT22;2062;50.694;7.246;2022-09-09T14:31:45;25.70;33.10
4097;DHT22;2062;50.694;7.246;2022-09-09T14:34:13;25.70;33.30
4097;DHT22;2062;50.694;7.246;2022-09-09T14:36:41;25.70;33.30
4097;DHT22;2062;50.694;7.246;2022-09-09T14:39:08;25.70;33.30
4097;DHT22;2062;50.694;7.246;2022-09-09T14:41:34;25.70;33.30
4097;DHT22;2062;50.694;7.246;2022-09-09T14:44:02;25.70;33.30
4097;DHT22;2062;50.694;7.246;2022-09-09T14:46:29;25.70;33.30
4097;DHT22;2062;50.694;7.246;2022-09-09T14:48:56;25.70;33.20
4097;DHT22;2062;50.694;7.246;2022-09-09T14:51:25;25.70;33.30
4097;DHT22;2062;50.694;7.246;2022-09-09T14:53:54;25.70;33.30
4097;DHT22;2062;50.694;7.246;2022-09-09T14:56:23;25.70;33.40
4097;DHT22;2062;50.694;7.246;2022-09-09T14:58:52;25.70;33.50
4097;DHT22;2062;50.694;7.246;2022-09-09T15:01:19;25.70;33.60
4097;DHT22;2062;50.694;7.246;2022-09-09T15:03:52;25.70;33.60
4097;DHT22;2062;50.694;7.246;2022-09-09T15:06:20;25.70;33.70
4097;DHT22;2062;50.694;7.246;2022-09-09T15:08:51;25.70;33.70
4097;DHT22;2062;50.694;7.246;2022-09-09T15:11:19;25.70;33.80
4097;DHT22;2062;50.694;7.246;2022-09-09T15:13:46;25.70;33.90
4097;DHT22;2062;50.694;7.246;2022-09-09T15:16:15;25.70;33.90
4097;DHT22;2062;50.694;7.246;2022-09-09T15:18:43;25.70;34.00
4097;DHT22;2062;50.694;7.246;2022-09-09T15:21:11;25.70;34.10
4097;DHT22;2062;50.694;7.246;2022-09-09T15:23:38;25.80;34.10
4097;DHT22;2062;50.694;7.246;2022-09-09T15:26:07;25.70;34.20
4097;DHT22;2062;50.694;7.246;2022-09-09T15:28:35;25.80;34.20
4097;DHT22;2062;50.694;7.246;2022-09-09T15:31:06;25.80;34.30
4097;DHT22;2062;50.694;7.246;2022-09-09T15:33:34;25.80;34.30
4097;DHT22;2062;50.694;7.246;2022-09-09T15:36:13;25.80;34.30
4097;DHT22;2062;50.694;7.246;2022-09-09T15:38:40;25.80;34.40
4097;DHT22;2062;50.694;7.246;2022-09-09T15:41:08;25.80;34.40
4097;DHT22;2062;50.694;7.246;2022-09-09T15:43:35;25.80;34.40
4097;DHT22;2062;50.694;7.246;2022-09-09T15:46:21;25.80;34.40
4097;DHT22;2062;50.694;7.246;2022-09-09T15:48:50;25.80;34.40
4097;DHT22;2062;50.694;7.246;2022-09-09T15:51:17;25.80;34.50
4097;DHT22;2062;50.694;7.246;2022-09-09T15:53:44;25.80;34.70
4097;DHT22;2062;50.694;7.246;2022-09-09T15:56:12;25.80;34.60
4097;DHT22;2062;50.694;7.246;2022-09-09T15:58:39;25.80;34.60
4097;DHT22;2062;50.694;7.246;2022-09-09T16:01:09;25.70;34.60
4097;DHT22;2062;50.694;7.246;2022-09-09T16:03:37;25.80;34.60
4097;DHT22;2062;50.694;7.246;2022-09-09T16:06:06;25.70;34.60
4097;DHT22;2062;50.694;7.246;2022-09-09T16:08:33;25.80;34.70
4097;DHT22;2062;50.694;7.246;2022-09-09T16:11:05;25.80;34.70
4097;DHT22;2062;50.694;7.246;2022-09-09T16:13:35;25.80;34.70
4097;DHT22;2062;50.694;7.246;2022-09-09T16:16:02;25.80;34.70
4097;DHT22;2062;50.694;7.246;2022-09-09T16:18:34;25.80;34.80
4097;DHT22;2062;50.694;7.246;2022-09-09T16:21:01;25.80;34.80
4097;DHT22;2062;50.694;7.246;2022-09-09T16:23:28;25.80;34.90
4097;DHT22;2062;50.694;7.246;2022-09-09T16:25:55;25.80;34.90
4097;DHT22;2062;50.694;7.246;2022-09-09T16:28:22;25.80;35.00
4097;DHT22;2062;50.694;7.246;2022-09-09T16:30:50;25.80;35.00
4097;DHT22;2062;50.694;7.246;2022-09-09T16:33:17;25.80;35.00
4097;DHT22;2062;50.694;7.246;2022-09-09T16:35:44;25.80;35.10